Time;durP1;ratioP1;P1;durP2;ratioP2;P2;SDS_P1;SDS_P2;PMS_P1;PMS_P2;Temp;Humidity;BMP_temperature;BMP_pressure;BME280_temperature;BME280_humidity;BME280_pressure;Samples;Min_cycle;Max_cycle;Signal;HPM_P1;HPM_P2
2023/01/24 00:01:13;;;;;;;23.13;21.43;;;;;;;2.99;100.00;104064.75;4992563;28;20430;-47
2023/01/24 00:03:42;;;;;;;22.80;21.20;;;;;;;2.99;100.00;104054.19;4992928;28;20485;-50
2023/01/24 00:06:10;;;;;;;23.73;22.23;;;;;;;2.98;100.00;104057.78;4992709;28;20438;-50
2023/01/24 00:08:38;;;;;;;23.80;22.00;;;;;;;2.96;100.00;104055.19;4992879;28;20786;-44
2023/01/24 00:11:07;;;;;;;22.27;20.57;;;;;;;2.95;100.00;104036.81;4992141;28;20469;-49
2023/01/24 00:13:36;;;;;;;22.20;20.70;;;;;;;2.95;100.00;104047.38;4993091;28;20457;-45
2023/01/24 00:16:06;;;;;;;23.57;21.87;;;;;;;2.95;100.00;104050.00;4992657;28;20525;-44
2023/01/24 00:18:34;;;;;;;25.50;23.60;;;;;;;2.94;100.00;104049.13;4992701;28;20458;-47
2023/01/24 00:21:04;;;;;;;26.33;24.47;;;;;;;2.96;100.00;104049.06;4992546;28;20480;-47
2023/01/24 00:23:32;;;;;;;23.37;21.97;;;;;;;2.96;100.00;104044.66;4992456;28;20477;-46
2023/01/24 00:26:00;;;;;;;25.27;23.57;;;;;;;2.98;100.00;104041.97;4992305;28;20436;-48
2023/01/24 00:28:27;;;;;;;25.50;23.60;;;;;;;2.96;100.00;104038.50;4992538;28;20967;-46
2023/01/24 00:30:55;;;;;;;25.47;23.80;;;;;;;2.96;100.00;104034.09;4992555;28;20935;-44
2023/01/24 00:33:23;;;;;;;25.77;24.07;;;;;;;2.96;100.00;104033.25;4992337;28;20474;-47
2023/01/24 00:35:51;;;;;;;26.93;25.13;;;;;;;2.94;100.00;104035.09;4992345;28;20469;-45
2023/01/24 00:38:20;;;;;;;26.27;24.30;;;;;;;2.94;100.00;104035.97;4992423;28;20827;-47
2023/01/24 00:40:49;;;;;;;25.10;23.53;;;;;;;2.94;100.00;104035.09;4992399;28;20524;-49
2023/01/24 00:43:17;;;;;;;25.70;23.90;;;;;;;2.93;100.00;104038.69;4991854;28;20482;-49
2023/01/24 00:45:45;;;;;;;25.90;24.20;;;;;;;2.92;100.00;104037.81;4992186;28;20437;-49
2023/01/24 00:48:14;;;;;;;26.60;24.60;;;;;;;2.93;100.00;104039.50;4992351;28;20552;-44
2023/01/24 00:50:42;;;;;;;28.07;25.93;;;;;;;2.92;100.00;104037.81;4992252;28;20430;-48
2023/01/24 00:53:10;;;;;;;26.83;25.07;;;;;;;2.93;100.00;104033.41;4993365;28;20864;-46
2023/01/24 00:55:43;;;;;;;26.73;24.73;;;;;;;2.93;100.00;104025.50;4992063;28;20430;-45
2023/01/24 00:58:11;;;;;;;26.37;24.47;;;;;;;2.92;100.00;104037.81;4992236;28;20457;-48
2023/01/24 01:00:40;;;;;;;26.20;24.50;;;;;;;2.91;100.00;104036.09;4992376;28;20441;-44
2023/01/24 01:03:08;;;;;;;25.57;23.77;;;;;;;2.91;100.00;104030.81;4991645;28;20988;-46
2023/01/24 01:05:36;;;;;;;27.87;26.07;;;;;;;2.90;100.00;104037.00;4992129;28;20800;-45
2023/01/24 01:08:04;;;;;;;26.57;24.87;;;;;;;2.91;100.00;104027.31;4992006;28;20952;-44
2023/01/24 01:10:31;;;;;;;24.77;23.20;;;;;;;2.89;100.00;104023.91;4992181;28;20457;-47
2023/01/24 01:13:00;;;;;;;24.73;23.23;;;;;;;2.91;100.00;104035.22;4991794;28;20520;-44
2023/01/24 01:15:29;;;;;;;26.00;24.17;;;;;;;2.90;100.00;104038.81;4991879;28;20434;-46
2023/01/24 01:17:58;;;;;;;23.93;22.10;;;;;;;2.90;100.00;104033.53;4991891;28;21005;-45
2023/01/24 01:20:27;;;;;;;24.40;22.70;;;;;;;2.88;100.00;104036.22;4992023;28;20426;-45
2023/01/24 01:22:56;;;;;;;25.10;23.50;;;;;;;2.86;100.00;104032.81;4991713;28;20568;-47
2023/01/24 01:25:23;;;;;;;25.90;24.07;;;;;;;2.86;100.00;104029.31;4992074;28;20492;-45
2023/01/24 01:27:51;;;;;;;26.37;24.47;;;;;;;2.87;100.00;104031.88;4991947;28;20450;-46
2023/01/24 01:30:20;;;;;;;25.63;23.90;;;;;;;2.87;100.00;104023.13;4991901;28;20465;-44
2023/01/24 01:32:48;;;;;;;27.10;25.10;;;;;;;2.87;100.00;104023.13;4991700;28;20465;-46
2023/01/24 01:35:16;;;;;;;24.80;23.20;;;;;;;2.87;100.00;104033.66;4994324;28;20436;-45
2023/01/24 01:37:43;;;;;;;26.00;24.20;;;;;;;2.86;100.00;104026.69;4995554;28;21014;-49
2023/01/24 01:40:12;;;;;;;27.00;24.83;;;;;;;2.84;100.00;104028.53;4995576;28;20437;-48
2023/01/24 01:42:50;;;;;;;24.93;23.47;;;;;;;2.85;100.00;104032.84;4994904;28;20462;-48
2023/01/24 01:45:42;;;;;;;24.53;23.03;;;;;;;2.85;100.00;104031.09;4995424;28;20504;-46
2023/01/24 01:48:17;;;;;;;23.97;22.50;;;;;;;2.86;100.00;104039.84;4993007;28;20465;-45
2023/01/24 01:50:48;;;;;;;22.57;21.27;;;;;;;2.87;100.00;104033.66;4995521;28;20492;-45
2023/01/24 01:53:17;;;;;;;22.37;21.10;;;;;;;2.90;100.00;104028.25;4994889;28;20851;-45
2023/01/24 01:55:50;;;;;;;22.53;21.03;;;;;;;2.86;100.00;104032.81;4995404;28;20433;-45
2023/01/24 01:58:20;;;;;;;24.20;22.70;;;;;;;2.87;100.00;104023.97;4995627;28;20466;-47
2023/01/24 02:00:50;;;;;;;24.63;22.77;;;;;;;2.89;100.00;104031.81;4995413;28;20421;-46
2023/01/24 02:03:40;;;;;;;25.20;23.00;;;;;;;2.90;100.00;104020.34;4994781;28;21030;-49
2023/01/24 02:06:16;;;;;;;24.93;23.23;;;;;;;2.90;100.00;104018.56;4995227;28;20437;-44
2023/01/24 02:08:45;;;;;;;25.37;23.17;;;;;;;2.90;100.00;104021.19;4994989;28;20461;-43
2023/01/24 02:16:47;;;;;;;24.97;23.47;;;;;;;2.90;100.00;104007.19;4995014;28;20549;-46
2023/01/24 02:19:27;;;;;;;26.83;25.03;;;;;;;2.89;100.00;104014.22;4995009;28;20430;-47
2023/01/24 02:22:03;;;;;;;25.77;24.10;;;;;;;2.88;100.00;104017.78;4994659;28;20483;-47
2023/01/24 02:24:36;;;;;;;27.17;25.47;;;;;;;2.87;100.00;104015.22;4994483;28;20809;-46
2023/01/24 02:27:05;;;;;;;24.70;22.97;;;;;;;2.87;100.00;104020.50;4994881;28;20454;-47
2023/01/24 02:29:33;;;;;;;26.10;24.27;;;;;;;2.87;100.00;104023.13;4994696;28;20444;-45
2023/01/24 02:32:03;;;;;;;26.67;24.80;;;;;;;2.86;100.00;104030.19;4994376;28;20484;-48
2023/01/24 02:34:31;;;;;;;27.10;25.37;;;;;;;2.86;100.00;104030.19;4994603;28;20433;-46
2023/01/24 02:37:01;;;;;;;25.87;24.17;;;;;;;2.82;100.00;104022.44;4994302;28;21014;-44
2023/01/24 02:39:33;;;;;;;26.50;24.80;;;;;;;2.81;100.00;104026.84;4994619;28;20433;-47
2023/01/24 02:42:05;;;;;;;26.33;24.53;;;;;;;2.83;100.00;104021.53;4986793;28;20458;-45
2023/01/24 02:44:41;;;;;;;26.27;24.43;;;;;;;2.85;100.00;104035.50;4994232;28;20478;-50
2023/01/24 02:47:09;;;;;;;26.77;25.00;;;;;;;2.78;100.00;104032.25;4993486;28;20461;-46
2023/01/24 02:49:37;;;;;;;26.70;24.80;;;;;;;2.79;100.00;104032.22;4994285;28;20434;-45
2023/01/24 02:54:50;;;;;;;24.80;23.20;;;;;;;2.82;100.00;104035.63;4994214;28;20426;-44
2023/01/24 03:00:06;;;;;;;27.83;25.70;;;;;;;2.84;100.00;104036.44;4994103;28;20532;-48
2023/01/24 03:02:34;;;;;;;28.17;25.97;;;;;;;2.84;100.00;104037.28;4993888;28;20832;-46
2023/01/24 03:05:01;;;;;;;25.57;23.87;;;;;;;2.86;100.00;104031.94;4994002;28;20835;-46
2023/01/24 03:07:41;;;;;;;26.17;24.37;;;;;;;2.85;100.00;104040.75;4994003;28;20508;-44
2023/01/24 03:10:10;;;;;;;28.87;26.77;;;;;;;2.85;100.00;104038.13;4994021;28;20485;-44
2023/01/24 03:34:49;;;;;;;29.30;27.17;;;;;;;2.83;100.00;104030.31;5002844;28;20429;-48
2023/01/24 03:39:53;;;;;;;28.70;26.70;;;;;;;2.82;100.00;104033.00;5002430;28;20468;-51
2023/01/24 03:40:08;;;;;;;28.93;26.63;;;;;;;2.82;100.00;104030.34;5002597;28;20422;-49
2023/01/24 03:42:46;;;;;;;28.97;26.77;;;;;;;2.81;100.00;104024.22;5002166;28;20473;-50
2023/01/24 03:45:16;;;;;;;29.77;27.57;;;;;;;2.82;100.00;104035.63;5002618;28;20500;-53
2023/01/24 03:47:54;;;;;;;27.00;25.20;;;;;;;2.81;100.00;104029.50;5002349;28;20470;-47
2023/01/24 03:53:09;;;;;;;27.87;25.87;;;;;;;2.79;100.00;104036.63;5002038;28;20469;-49
2023/01/24 03:55:37;;;;;;;27.80;25.93;;;;;;;2.66;100.00;104038.91;5002109;28;20430;-54
2023/01/24 03:58:05;;;;;;;28.03;25.70;;;;;;;2.68;100.00;104039.72;5001756;28;20457;-51
2023/01/24 04:00:33;;;;;;;28.30;26.23;;;;;;;2.70;100.00;104035.25;5002500;28;20439;-47
2023/01/24 04:03:03;;;;;;;26.37;24.60;;;;;;;2.73;100.00;104042.16;5001512;28;20464;-51
2023/01/24 04:05:32;;;;;;;28.53;26.30;;;;;;;2.75;100.00;104042.94;5001759;28;20528;-51
2023/01/24 04:08:00;;;;;;;27.03;25.00;;;;;;;2.74;100.00;104047.38;5001801;28;20458;-48
2023/01/24 04:10:28;;;;;;;27.87;25.80;;;;;;;2.75;100.00;104041.16;5001223;28;20477;-48
2023/01/24 04:12:56;;;;;;;30.50;28.10;;;;;;;2.78;100.00;104038.41;5001100;28;20477;-51
2023/01/24 04:15:25;;;;;;;26.30;24.37;;;;;;;2.79;100.00;104040.13;5001247;28;20426;-47
2023/01/24 04:17:56;;;;;;;27.27;24.90;;;;;;;2.79;100.00;104045.38;5002442;28;20458;-49
2023/01/24 04:20:26;;;;;;;26.27;24.50;;;;;;;2.74;100.00;104047.38;5002259;28;20800;-50
2023/01/24 04:22:53;;;;;;;26.20;24.40;;;;;;;2.72;100.00;104048.34;5001440;28;20472;-48
2023/01/24 04:25:21;;;;;;;29.77;27.10;;;;;;;2.73;100.00;104036.88;5001778;28;20474;-49
2023/01/24 04:27:50;;;;;;;26.70;24.90;;;;;;;2.74;100.00;104042.09;5002030;28;20983;-48
2023/01/24 04:30:17;;;;;;;27.73;25.57;;;;;;;2.75;100.00;104043.78;5002232;28;20445;-51
2023/01/24 04:32:45;;;;;;;27.93;25.53;;;;;;;2.78;100.00;104046.31;5001987;28;20461;-47
2023/01/24 04:35:17;;;;;;;26.53;24.60;;;;;;;2.77;100.00;104041.97;5002891;28;20433;-48
2023/01/24 04:37:46;;;;;;;25.83;24.03;;;;;;;2.78;100.00;104043.66;5002002;28;20464;-46
2023/01/24 04:40:14;;;;;;;26.80;24.57;;;;;;;2.73;100.00;104047.44;5002192;28;21006;-49
2023/01/24 04:42:43;;;;;;;27.03;24.93;;;;;;;2.68;100.00;104033.59;5000455;28;20556;-53
2023/01/24 04:45:11;;;;;;;24.27;22.77;;;;;;;2.57;100.00;104039.31;5001310;28;20476;-51
2023/01/24 04:47:39;;;;;;;26.73;25.07;;;;;;;2.59;100.00;104032.22;5002124;28;20458;-49
2023/01/24 04:50:08;;;;;;;28.23;26.13;;;;;;;2.61;100.00;104042.66;5001779;28;20449;-49
2023/01/24 04:52:36;;;;;;;31.33;29.03;;;;;;;2.63;100.00;104049.59;5000704;28;20511;-51
2023/01/24 04:55:06;;;;;;;25.70;24.00;;;;;;;2.64;100.00;104047.81;5001048;28;20448;-48
2023/01/24 04:57:34;;;;;;;27.80;25.83;;;;;;;2.66;100.00;104041.56;5001432;28;20885;-46
2023/01/24 05:00:01;;;;;;;26.50;24.60;;;;;;;2.66;100.00;104038.91;5002071;28;20434;-45
2023/01/24 05:02:29;;;;;;;28.17;26.10;;;;;;;2.69;100.00;104041.41;5001233;28;20895;-52
2023/01/24 05:04:56;;;;;;;30.30;28.30;;;;;;;2.68;100.00;104039.72;5001138;28;20473;-51
2023/01/24 05:07:24;;;;;;;28.47;26.50;;;;;;;2.65;100.00;104041.63;5001596;28;20553;-50
2023/01/24 05:09:52;;;;;;;27.30;25.53;;;;;;;2.64;100.00;104046.03;5003805;28;20444;-51
2023/01/24 05:12:21;;;;;;;29.57;27.47;;;;;;;2.67;100.00;104048.53;5005582;28;20461;-48
2023/01/24 05:14:49;;;;;;;30.60;28.50;;;;;;;2.67;100.00;104047.69;5006207;28;20429;-49
2023/01/24 05:17:16;;;;;;;30.17;27.90;;;;;;;2.65;100.00;104055.66;5006251;28;20464;-50
2023/01/24 05:19:44;;;;;;;30.83;28.47;;;;;;;2.65;100.00;104057.44;5007060;28;20429;-47
2023/01/24 05:22:12;;;;;;;28.27;26.27;;;;;;;2.64;100.00;104059.22;5005619;28;20499;-48
2023/01/24 05:24:39;;;;;;;29.07;26.93;;;;;;;2.66;100.00;104051.22;5006073;28;20475;-49
2023/01/24 05:27:08;;;;;;;28.27;26.17;;;;;;;2.64;100.00;104055.72;5006882;28;20453;-47
2023/01/24 05:29:37;;;;;;;29.23;26.97;;;;;;;2.62;100.00;104049.66;5006813;28;20443;-47
2023/01/24 05:32:05;;;;;;;28.97;26.70;;;;;;;2.65;100.00;104052.16;5006241;28;20469;-47
2023/01/24 05:34:32;;;;;;;29.77;27.53;;;;;;;2.66;100.00;104046.81;5005357;28;20438;-50
2023/01/24 05:37:00;;;;;;;28.80;26.80;;;;;;;2.68;100.00;104045.00;5005435;28;20454;-45
2023/01/24 05:39:28;;;;;;;31.10;28.90;;;;;;;2.70;100.00;104055.47;5006186;28;20453;-46
2023/01/24 05:41:56;;;;;;;29.07;27.00;;;;;;;2.71;100.00;104049.28;4997319;28;20472;-50
2023/01/24 05:44:24;;;;;;;31.77;29.33;;;;;;;2.73;100.00;104047.44;5006003;28;20437;-49
2023/01/24 05:46:53;;;;;;;30.67;28.53;;;;;;;2.69;100.00;104053.72;5006140;28;20472;-46
2023/01/24 05:49:20;;;;;;;27.80;25.87;;;;;;;2.56;100.00;104049.94;5005871;28;20437;-49
2023/01/24 05:51:48;;;;;;;30.47;28.13;;;;;;;2.58;100.00;104059.47;5006379;28;20469;-49
2023/01/24 05:54:15;;;;;;;29.83;27.70;;;;;;;2.61;100.00;104058.47;5004944;28;20438;-51
2023/01/24 05:56:43;;;;;;;29.13;26.83;;;;;;;2.64;100.00;104063.63;5004559;28;20453;-51
2023/01/24 05:59:13;;;;;;;28.50;26.70;;;;;;;2.63;100.00;104057.50;5004717;28;20501;-49
2023/01/24 06:01:41;;;;;;;30.57;28.40;;;;;;;2.65;100.00;104060.06;5005337;28;20528;-48
2023/01/24 06:04:10;;;;;;;33.07;30.37;;;;;;;2.65;100.00;104063.56;5004535;28;20437;-50
2023/01/24 06:06:38;;;;;;;28.97;26.87;;;;;;;2.65;100.00;104055.66;5005120;28;20483;-51
2023/01/24 06:09:07;;;;;;;30.73;28.53;;;;;;;2.66;100.00;104061.78;5005290;28;20505;-49
2023/01/24 06:11:34;;;;;;;29.90;27.60;;;;;;;2.66;100.00;104064.41;5004310;28;20472;-51
2023/01/24 06:14:02;;;;;;;32.23;29.87;;;;;;;2.66;100.00;104065.25;5004289;28;20430;-47
2023/01/24 06:16:30;;;;;;;30.27;28.00;;;;;;;2.68;100.00;104062.59;5004932;28;20456;-45
2023/01/24 06:18:58;;;;;;;30.90;28.47;;;;;;;2.66;100.00;104072.31;5004832;28;20438;-47
2023/01/24 06:21:42;;;;;;;31.27;28.97;;;;;;;2.62;100.00;104065.47;5003860;28;20466;-54
2023/01/24 06:24:14;;;;;;;30.80;28.47;;;;;;;2.58;100.00;104070.00;5004724;28;20932;-50
2023/01/24 06:26:43;;;;;;;29.87;27.60;;;;;;;2.55;100.00;104077.19;5004986;28;20513;-47
2023/01/24 06:29:12;;;;;;;29.77;27.43;;;;;;;2.49;100.00;104070.38;5005178;28;20465;-52
2023/01/24 06:31:51;;;;;;;32.80;30.50;;;;;;;2.46;100.00;104075.78;5004829;28;20541;-46
2023/01/24 06:34:36;;;;;;;31.83;29.60;;;;;;;2.32;100.00;104069.38;5005459;28;20430;-52
2023/01/24 06:37:14;;;;;;;31.43;29.33;;;;;;;2.20;100.00;104073.34;5005448;28;20454;-44
2023/01/24 06:39:49;;;;;;;32.30;29.87;;;;;;;2.06;100.00;104075.69;5005306;28;20528;-46
2023/01/24 06:42:17;;;;;;;32.30;29.70;;;;;;;2.15;100.00;104080.59;5004524;28;20469;-48
2023/01/24 06:44:45;;;;;;;32.63;30.17;;;;;;;2.19;100.00;104079.53;5004623;28;20541;-52
2023/01/24 06:47:14;;;;;;;34.07;31.43;;;;;;;2.27;100.00;104071.34;5004478;28;20482;-47
2023/01/24 06:49:42;;;;;;;33.80;31.10;;;;;;;2.30;100.00;104081.75;5004517;28;20438;-51
2023/01/24 06:52:12;;;;;;;32.07;29.50;;;;;;;2.36;100.00;104084.13;5003947;28;20461;-46
2023/01/24 06:54:40;;;;;;;31.00;28.70;;;;;;;2.38;100.00;104088.41;5004081;28;20433;-52
2023/01/24 06:57:08;;;;;;;29.60;27.50;;;;;;;2.39;100.00;104087.47;5004596;28;20509;-47
2023/01/24 06:59:35;;;;;;;32.40;29.90;;;;;;;2.36;100.00;104089.41;5004465;28;20446;-47
2023/01/24 07:02:03;;;;;;;33.97;31.17;;;;;;;2.24;100.00;104096.00;5003862;28;20525;-46
2023/01/24 07:04:31;;;;;;;32.60;30.30;;;;;;;2.20;100.00;104097.91;5004066;28;20545;-46
2023/01/24 07:06:59;;;;;;;31.43;29.03;;;;;;;2.19;100.00;104095.31;5004901;28;21039;-45
2023/01/24 07:09:28;;;;;;;30.73;28.23;;;;;;;2.21;100.00;104090.88;5004335;28;20446;-45
2023/01/24 07:11:57;;;;;;;33.00;30.47;;;;;;;2.18;100.00;104098.91;5004759;28;20461;-47
2023/01/24 07:14:25;;;;;;;30.37;28.03;;;;;;;2.23;100.00;104104.84;5004797;28;20445;-45
2023/01/24 07:16:55;;;;;;;32.70;29.93;;;;;;;2.23;100.00;104095.16;5005102;28;20479;-48
2023/01/24 07:19:25;;;;;;;32.60;30.00;;;;;;;2.25;100.00;104097.72;5004329;28;20434;-48
2023/01/24 07:21:56;;;;;;;31.20;28.60;;;;;;;2.28;100.00;104097.59;5004086;28;20522;-50
2023/01/24 07:24:27;;;;;;;31.20;28.50;;;;;;;2.31;100.00;104102.75;5003470;28;20837;-53
2023/01/24 07:26:57;;;;;;;31.60;29.00;;;;;;;2.38;100.00;104104.22;5003806;28;20501;-51
2023/01/24 07:29:25;;;;;;;32.33;29.57;;;;;;;2.40;100.00;104105.00;5003837;28;20433;-52
2023/01/24 07:31:53;;;;;;;31.90;29.27;;;;;;;2.42;100.00;104105.78;5002057;28;20462;-54
2023/01/24 07:34:21;;;;;;;29.37;27.13;;;;;;;2.46;100.00;104101.25;5003066;28;20457;-47
2023/01/24 07:36:49;;;;;;;29.37;27.20;;;;;;;2.47;100.00;104106.50;5002827;28;20454;-47
2023/01/24 07:39:17;;;;;;;32.23;29.47;;;;;;;2.46;100.00;104086.31;5002337;28;20430;-53
2023/01/24 07:41:45;;;;;;;32.93;29.90;;;;;;;2.46;100.00;104083.69;5002332;28;20868;-47
2023/01/24 07:44:14;;;;;;;30.30;27.80;;;;;;;2.49;100.00;104094.09;5002356;28;20445;-50
2023/01/24 07:46:42;;;;;;;33.57;30.60;;;;;;;2.49;100.00;104083.56;5002503;28;20517;-48
2023/01/24 07:49:10;;;;;;;30.53;28.17;;;;;;;2.52;100.00;104096.59;5002843;28;20438;-50
2023/01/24 07:51:37;;;;;;;31.07;28.70;;;;;;;2.56;100.00;104085.03;5002426;28;20528;-46
2023/01/24 07:54:05;;;;;;;28.83;26.63;;;;;;;2.58;100.00;104092.84;5003201;28;20441;-52
2023/01/24 07:56:36;;;;;;;29.73;27.33;;;;;;;2.61;100.00;104098.00;5002603;28;20473;-49
2023/01/24 07:59:04;;;;;;;31.03;28.47;;;;;;;2.65;100.00;104097.81;5002517;28;20490;-53
2023/01/24 08:01:33;;;;;;;32.27;29.63;;;;;;;2.68;100.00;104105.59;5002476;28;20462;-48
2023/01/24 08:04:01;;;;;;;28.40;26.20;;;;;;;2.70;100.00;104108.16;5003512;28;20520;-49
2023/01/24 08:06:28;;;;;;;31.10;28.50;;;;;;;2.71;100.00;104107.25;5003244;28;20556;-48
2023/01/24 08:08:56;;;;;;;29.20;26.73;;;;;;;2.74;100.00;104109.75;5002750;28;20453;-48
2023/01/24 08:11:25;;;;;;;29.80;27.30;;;;;;;2.76;100.00;104108.78;5002863;28;20477;-54
2023/01/24 08:13:54;;;;;;;31.13;28.53;;;;;;;2.79;100.00;104100.72;5003373;28;20434;-52
2023/01/24 08:16:23;;;;;;;31.50;29.00;;;;;;;2.83;100.00;104105.88;5002299;28;20434;-47
2023/01/24 08:18:52;;;;;;;31.77;28.77;;;;;;;2.86;100.00;104103.13;5003121;28;20438;-54
2023/01/24 08:21:20;;;;;;;31.17;28.50;;;;;;;2.88;100.00;104098.63;5002570;28;20485;-50
2023/01/24 08:23:48;;;;;;;31.03;27.97;;;;;;;2.82;100.00;104106.78;5003315;28;20480;-49
2023/01/24 08:26:16;;;;;;;30.27;27.60;;;;;;;2.81;100.00;104099.81;5003299;28;20473;-48
2023/01/24 08:28:43;;;;;;;29.73;27.43;;;;;;;2.84;100.00;104112.88;5002537;28;20449;-49
2023/01/24 08:31:11;;;;;;;29.93;27.40;;;;;;;2.70;100.00;104116.06;5001393;28;20777;-49
2023/01/24 08:33:40;;;;;;;29.90;27.50;;;;;;;2.71;100.00;104117.78;5002191;28;20442;-48
2023/01/24 08:36:09;;;;;;;32.33;29.37;;;;;;;2.73;100.00;104116.81;5002910;28;20433;-48
2023/01/24 08:38:37;;;;;;;30.57;28.07;;;;;;;2.74;100.00;104120.31;5002240;28;20877;-47
2023/01/24 08:41:07;;;;;;;31.93;29.20;;;;;;;2.75;100.00;104122.00;5001673;28;20437;-49
2023/01/24 08:43:36;;;;;;;31.20;28.50;;;;;;;2.74;100.00;104115.91;5001503;28;20461;-50
2023/01/24 08:46:03;;;;;;;29.20;26.77;;;;;;;2.74;100.00;104113.25;5001263;28;20974;-49
2023/01/24 08:48:32;;;;;;;29.63;27.07;;;;;;;2.82;100.00;104114.69;5001822;28;20458;-49
2023/01/24 08:51:03;;;;;;;31.20;28.43;;;;;;;2.90;100.00;104117.88;5001305;28;20438;-51
2023/01/24 08:53:32;;;;;;;31.03;28.20;;;;;;;2.88;100.00;104115.31;5001530;28;20434;-53
2023/01/24 08:56:02;;;;;;;31.63;28.83;;;;;;;2.85;100.00;104117.19;5001268;28;20434;-52
2023/01/24 08:58:32;;;;;;;31.63;29.00;;;;;;;2.86;100.00;104121.56;5001678;28;20492;-48
2023/01/24 09:00:59;;;;;;;31.20;28.50;;;;;;;2.92;100.00;104123.94;5001341;28;20517;-49
2023/01/24 09:03:27;;;;;;;31.97;29.17;;;;;;;2.97;100.00;104124.59;5001833;28;20465;-53
2023/01/24 09:05:57;;;;;;;32.60;29.90;;;;;;;3.04;100.00;104123.44;5000726;28;20489;-54
2023/01/24 09:08:24;;;;;;;29.37;27.13;;;;;;;3.10;100.00;104121.38;5001138;28;20473;-50
2023/01/24 09:10:54;;;;;;;30.50;28.10;;;;;;;3.17;100.00;104121.94;5000566;28;20505;-50
2023/01/24 09:13:21;;;;;;;30.40;27.70;;;;;;;3.17;100.00;104122.81;5020150;28;20469;-53
2023/01/24 09:15:49;;;;;;;32.97;30.03;;;;;;;3.21;100.00;104131.47;5020316;28;20436;-51
2023/01/24 09:18:19;;;;;;;31.50;28.77;;;;;;;3.25;100.00;104127.78;5020648;28;20444;-52
2023/01/24 09:20:47;;;;;;;31.50;28.70;;;;;;;3.26;100.00;104134.75;5021033;28;20540;-53
2023/01/24 09:23:15;;;;;;;29.20;26.87;;;;;;;3.29;100.00;104131.97;5019145;28;20472;-51
2023/01/24 09:25:50;;;;;;;31.03;28.37;;;;;;;3.31;100.00;104138.06;5020765;28;20505;-50
2023/01/24 09:28:20;;;;;;;32.07;29.17;;;;;;;3.33;100.00;104146.75;5020689;28;20488;-54
2023/01/24 09:30:48;;;;;;;29.90;27.40;;;;;;;3.34;100.00;104144.03;5020631;28;20969;-52
2023/01/24 09:33:17;;;;;;;30.17;27.40;;;;;;;3.38;100.00;104152.69;5019790;28;20460;-52
2023/01/24 09:35:52;;;;;;;29.43;26.80;;;;;;;3.42;100.00;104158.69;5020826;28;20433;-50
2023/01/24 09:38:22;;;;;;;29.93;27.30;;;;;;;3.45;100.00;104159.41;5020055;28;20457;-51
2023/01/24 09:40:57;;;;;;;28.73;26.60;;;;;;;3.42;100.00;104158.69;5020960;28;20425;-48
2023/01/24 09:43:43;;;;;;;31.87;29.00;;;;;;;3.43;100.00;104168.31;5002496;28;20437;-44
2023/01/24 09:46:31;;;;;;;29.47;27.13;;;;;;;3.31;100.00;104167.06;5001790;28;20454;-48
2023/01/24 09:49:06;;;;;;;30.73;28.10;;;;;;;3.09;100.00;104169.75;5001288;28;20469;-47
2023/01/24 09:51:38;;;;;;;29.43;26.93;;;;;;;2.94;100.00;104173.03;5000875;28;20457;-52
2023/01/24 09:54:06;;;;;;;28.70;26.17;;;;;;;2.90;100.00;104170.63;5000900;28;20958;-48
2023/01/24 09:56:36;;;;;;;29.50;26.90;;;;;;;2.78;100.00;104156.13;5004746;28;20560;-51
2023/01/24 09:59:17;;;;;;;28.77;26.27;;;;;;;2.92;100.00;104161.72;5005273;28;20434;-47
2023/01/24 10:01:47;;;;;;;30.70;28.00;;;;;;;2.95;100.00;104161.59;5006133;28;20475;-49
2023/01/24 10:04:21;;;;;;;29.40;26.90;;;;;;;3.03;100.00;104161.25;5005334;28;20860;-51
2023/01/24 10:07:16;;;;;;;30.93;28.33;;;;;;;3.03;100.00;104155.97;5004654;28;20493;-50
2023/01/24 10:09:59;;;;;;;29.20;26.80;;;;;;;3.05;100.00;104154.97;5004409;28;20446;-48
2023/01/24 10:12:38;;;;;;;33.43;30.77;;;;;;;3.10;100.00;104157.44;5004390;28;20466;-51
2023/01/24 10:15:18;;;;;;;30.83;28.30;;;;;;;3.20;100.00;104148.19;5004670;28;21046;-47
2023/01/24 10:17:59;;;;;;;30.20;27.57;;;;;;;3.26;100.00;104147.94;5004592;28;20457;-50
2023/01/24 10:20:45;;;;;;;30.03;27.33;;;;;;;3.30;100.00;104141.59;5004755;28;20438;-49
2023/01/24 10:23:17;;;;;;;29.17;26.70;;;;;;;3.39;100.00;104135.94;5005189;28;20461;-52
2023/01/24 10:25:55;;;;;;;29.50;26.90;;;;;;;3.45;100.00;104135.66;5004513;28;20505;-52
2023/01/24 10:28:27;;;;;;;31.40;28.33;;;;;;;3.50;100.00;104128.38;5004227;28;20473;-54
2023/01/24 10:31:05;;;;;;;28.70;26.10;;;;;;;3.60;100.00;104124.44;5005104;28;20954;-50
2023/01/24 10:33:38;;;;;;;28.40;26.10;;;;;;;3.46;100.00;104123.34;5004264;28;20433;-47
2023/01/24 10:36:12;;;;;;;29.77;27.20;;;;;;;3.37;100.00;104129.00;5003535;28;20429;-52
2023/01/24 10:38:41;;;;;;;29.23;26.63;;;;;;;3.43;100.00;104126.09;5004443;28;20959;-51
2023/01/24 10:41:21;;;;;;;31.43;28.53;;;;;;;3.47;100.00;104120.59;5003959;28;20444;-51
2023/01/24 10:43:59;;;;;;;28.67;25.97;;;;;;;3.41;100.00;104130.56;5004673;28;20505;-49
2023/01/24 10:46:50;;;;;;;29.33;26.77;;;;;;;3.43;100.00;104118.19;5004842;28;20434;-47
2023/01/24 10:49:24;;;;;;;30.13;27.57;;;;;;;3.40;100.00;104110.41;5004094;28;21055;-52
2023/01/24 10:52:16;;;;;;;31.80;28.90;;;;;;;3.38;100.00;104115.75;5003739;28;20484;-52
2023/01/24 10:54:51;;;;;;;29.33;26.73;;;;;;;3.50;100.00;104109.91;5003954;28;20434;-49
2023/01/24 10:57:29;;;;;;;29.83;27.33;;;;;;;3.57;100.00;104103.44;5005037;28;20472;-50
2023/01/24 11:00:02;;;;;;;30.57;27.90;;;;;;;3.63;100.00;104092.63;5003551;28;20434;-52
2023/01/24 11:02:33;;;;;;;28.50;26.00;;;;;;;3.69;100.00;104088.84;5004132;28;20991;-50
2023/01/24 11:05:04;;;;;;;29.43;26.40;;;;;;;3.78;100.00;104083.13;5003672;28;20433;-49
2023/01/24 11:07:38;;;;;;;29.03;26.57;;;;;;;3.82;100.00;104084.72;5003362;28;20454;-47
2023/01/24 11:10:16;;;;;;;31.47;28.53;;;;;;;3.89;100.00;104086.97;5004320;28;20477;-49
2023/01/24 11:12:49;;;;;;;31.00;28.10;;;;;;;3.91;100.00;104077.19;5003170;28;20481;-51
2023/01/24 11:15:21;;;;;;;30.27;27.47;;;;;;;3.97;100.00;104077.84;5003602;28;20944;-51
2023/01/24 11:17:55;;;;;;;31.17;28.47;;;;;;;3.99;100.00;104078.63;5003782;28;20513;-46
2023/01/24 11:20:28;;;;;;;31.30;28.40;;;;;;;4.01;100.00;104074.97;5004416;28;20430;-50
2023/01/24 11:23:12;;;;;;;28.67;25.93;;;;;;;4.04;100.00;104071.34;5002770;28;20546;-52
2023/01/24 11:25:53;;;;;;;29.27;26.70;;;;;;;4.10;100.00;104077.19;5002706;28;20541;-49
2023/01/24 11:28:24;;;;;;;30.47;27.97;;;;;;;4.14;100.00;104085.81;5003089;28;20477;-49
2023/01/24 11:30:52;;;;;;;30.67;27.90;;;;;;;4.10;100.00;104086.88;5003645;28;20793;-48
2023/01/24 11:33:38;;;;;;;28.80;26.50;;;;;;;4.06;100.00;104086.16;5002433;28;20473;-49
2023/01/24 11:36:17;;;;;;;30.57;27.97;;;;;;;3.95;100.00;104079.69;5002574;28;20433;-49
2023/01/24 11:38:45;;;;;;;30.97;28.07;;;;;;;4.01;100.00;104082.91;5002592;28;20502;-46
2023/01/24 11:41:20;;;;;;;30.57;28.10;;;;;;;4.01;100.00;104076.75;5002185;28;20436;-48
2023/01/24 11:44:31;;;;;;;28.43;26.03;;;;;;;4.02;100.00;104075.84;5003103;28;20436;-46
2023/01/24 11:47:07;;;;;;;32.00;29.20;;;;;;;4.04;100.00;104069.56;4985329;28;20458;-47
2023/01/24 11:50:00;;;;;;;29.73;27.33;;;;;;;4.07;100.00;104065.91;5002453;28;20473;-51
2023/01/24 11:52:59;;;;;;;29.50;27.00;;;;;;;4.10;100.00;104069.25;5001010;28;20465;-47
2023/01/24 11:55:36;;;;;;;30.63;27.90;;;;;;;4.12;100.00;104071.84;5002780;28;20438;-49
2023/01/24 11:58:21;;;;;;;30.73;27.93;;;;;;;4.13;100.00;104071.75;5003494;28;20449;-46
2023/01/24 12:00:56;;;;;;;30.70;27.90;;;;;;;4.11;100.00;104062.19;5003745;28;20429;-48
2023/01/24 12:03:44;;;;;;;31.47;28.57;;;;;;;4.07;100.00;104058.84;5003645;28;20886;-45